sensor_id;sensor_type;location;lat;lon;timestamp;pressure;altitude;pressure_sealevel;temperature;humidity
55301;BME280;58302;51.446;-2.000;2023-04-26T00:00:26;100931.88;;;4.00;100.00
55301;BME280;58302;51.446;-2.000;2023-04-26T00:02:53;100923.19;;;4.05;100.00
55301;BME280;58302;51.446;-2.000;2023-04-26T00:05:20;100911.16;;;4.14;100.00
55301;BME280;58302;51.446;-2.000;2023-04-26T00:07:46;100901.00;;;4.22;100.00
55301;BME280;58302;51.446;-2.000;2023-04-26T00:10:15;100907.00;;;4.25;100.00
55301;BME280;58302;51.446;-2.000;2023-04-26T00:12:41;100901.84;;;4.23;100.00
55301;BME280;58302;51.446;-2.000;2023-04-26T00:15:07;100902.66;;;4.17;100.00
55301;BME280;58302;51.446;-2.000;2023-04-26T00:17:34;100909.53;;;4.13;100.00
55301;BME280;58302;51.446;-2.000;2023-04-26T00:20:00;100902.91;;;4.09;100.00
55301;BME280;58302;51.446;-2.000;2023-04-26T00:22:27;100912.22;;;4.06;100.00
55301;BME280;58302;51.446;-2.000;2023-04-26T00:24:53;100911.19;;;4.07;100.00
55301;BME280;58302;51.446;-2.000;2023-04-26T00:27:19;100913.47;;;4.04;100.00
55301;BME280;58302;51.446;-2.000;2023-04-26T00:29:45;100899.84;;;3.99;100.00
55301;BME280;58302;51.446;-2.000;2023-04-26T00:32:11;100897.97;;;3.92;100.00
55301;BME280;58302;51.446;-2.000;2023-04-26T00:34:37;100900.66;;;3.92;100.00
55301;BME280;58302;51.446;-2.000;2023-04-26T00:37:04;100905.84;;;3.94;100.00
55301;BME280;58302;51.446;-2.000;2023-04-26T00:39:30;100900.47;;;3.94;100.00
55301;BME280;58302;51.446;-2.000;2023-04-26T00:41:56;100902.09;;;3.95;100.00
55301;BME280;58302;51.446;-2.000;2023-04-26T00:44:22;100895.50;;;3.97;100.00
55301;BME280;58302;51.446;-2.000;2023-04-26T00:46:51;100897.97;;;3.99;100.00
55301;BME280;58302;51.446;-2.000;2023-04-26T00:49:20;100899.84;;;3.99;100.00
55301;BME280;58302;51.446;-2.000;2023-04-26T00:51:48;100898.78;;;4.00;100.00
55301;BME280;58302;51.446;-2.000;2023-04-26T00:54:18;100906.84;;;4.00;100.00
55301;BME280;58302;51.446;-2.000;2023-04-26T00:56:45;100902.53;;;3.99;100.00
55301;BME280;58302;51.446;-2.000;2023-04-26T00:59:11;100904.38;;;3.98;100.00
55301;BME280;58302;51.446;-2.000;2023-04-26T01:01:37;100888.03;;;4.00;100.00
55301;BME280;58302;51.446;-2.000;2023-04-26T01:04:03;100883.91;;;3.97;100.00
55301;BME280;58302;51.446;-2.000;2023-04-26T01:06:33;100893.41;;;4.00;100.00
55301;BME280;58302;51.446;-2.000;2023-04-26T01:09:01;100901.66;;;4.05;100.00
55301;BME280;58302;51.446;-2.000;2023-04-26T01:11:28;100896.28;;;4.05;100.00
55301;BME280;58302;51.446;-2.000;2023-04-26T01:13:55;100899.63;;;4.07;100.00
55301;BME280;58302;51.446;-2.000;2023-04-26T01:16:22;100908.69;;;4.06;100.00
55301;BME280;58302;51.446;-2.000;2023-04-26T01:18:52;100900.03;;;4.04;100.00
55301;BME280;58302;51.446;-2.000;2023-04-26T01:21:19;100907.06;;;4.05;100.00
55301;BME280;58302;51.446;-2.000;2023-04-26T01:23:50;100915.34;;;4.03;100.00
55301;BME280;58302;51.446;-2.000;2023-04-26T01:26:17;100910.78;;;4.04;100.00
55301;BME280;58302;51.446;-2.000;2023-04-26T01:28:43;100894.22;;;4.00;100.00
55301;BME280;58302;51.446;-2.000;2023-04-26T01:31:11;100890.72;;;4.00;100.00
55301;BME280;58302;51.446;-2.000;2023-04-26T01:33:37;100897.97;;;3.99;100.00
55301;BME280;58302;51.446;-2.000;2023-04-26T01:36:08;100901.47;;;4.00;100.00
55301;BME280;58302;51.446;-2.000;2023-04-26T01:38:35;100889.06;;;3.99;100.00
55301;BME280;58302;51.446;-2.000;2023-04-26T01:41:01;100895.91;;;4.01;100.00
55301;BME280;58302;51.446;-2.000;2023-04-26T01:43:27;100897.75;;;4.01;100.00
55301;BME280;58302;51.446;-2.000;2023-04-26T01:45:53;100895.69;;;4.03;100.00
55301;BME280;58302;51.446;-2.000;2023-04-26T01:48:19;100890.53;;;4.01;100.00
55301;BME280;58302;51.446;-2.000;2023-04-26T01:50:45;100892.59;;;3.99;100.00
55301;BME280;58302;51.446;-2.000;2023-04-26T01:53:12;100893.03;;;3.96;100.00
55301;BME280;58302;51.446;-2.000;2023-04-26T01:55:38;100891.75;;;3.99;100.00
55301;BME280;58302;51.446;-2.000;2023-04-26T01:58:04;100897.34;;;4.04;100.00
55301;BME280;58302;51.446;-2.000;2023-04-26T02:00:31;100895.25;;;4.06;100.00
55301;BME280;58302;51.446;-2.000;2023-04-26T02:02:57;100901.25;;;4.08;100.00
55301;BME280;58302;51.446;-2.000;2023-04-26T02:05:23;100901.03;;;4.09;100.00
55301;BME280;58302;51.446;-2.000;2023-04-26T02:07:49;100895.44;;;4.11;100.00
55301;BME280;58302;51.446;-2.000;2023-04-26T02:10:16;100896.25;;;4.11;100.00
55301;BME280;58302;51.446;-2.000;2023-04-26T02:12:42;100894.63;;;4.10;100.00
55301;BME280;58302;51.446;-2.000;2023-04-26T02:15:08;100889.88;;;4.12;100.00
55301;BME280;58302;51.446;-2.000;2023-04-26T02:17:34;100891.31;;;4.15;100.00
55301;BME280;58302;51.446;-2.000;2023-04-26T02:20:03;100892.94;;;4.16;100.00
55301;BME280;58302;51.446;-2.000;2023-04-26T02:22:29;100894.81;;;4.15;100.00
55301;BME280;58302;51.446;-2.000;2023-04-26T02:24:55;100886.75;;;4.15;100.00
55301;BME280;58302;51.446;-2.000;2023-04-26T02:27:21;100893.59;;;4.18;100.00
55301;BME280;58302;51.446;-2.000;2023-04-26T02:29:47;100896.66;;;4.21;100.00
55301;BME280;58302;51.446;-2.000;2023-04-26T02:32:14;100897.06;;;4.25;100.00
55301;BME280;58302;51.446;-2.000;2023-04-26T02:34:40;100886.72;;;4.22;100.00
55301;BME280;58302;51.446;-2.000;2023-04-26T02:37:06;100883.00;;;4.23;100.00
55301;BME280;58302;51.446;-2.000;2023-04-26T02:39:32;100876.78;;;4.22;100.00
55301;BME280;58302;51.446;-2.000;2023-04-26T02:41:58;100879.69;;;4.21;100.00
55301;BME280;58302;51.446;-2.000;2023-04-26T02:44:24;100874.94;;;4.23;100.00
55301;BME280;58302;51.446;-2.000;2023-04-26T02:46:50;100868.72;;;4.22;100.00
55301;BME280;58302;51.446;-2.000;2023-04-26T02:49:16;100876.59;;;4.17;100.00
55301;BME280;58302;51.446;-2.000;2023-04-26T02:51:42;100879.94;;;4.13;100.00
55301;BME280;58302;51.446;-2.000;2023-04-26T02:54:08;100876.41;;;4.06;100.00
55301;BME280;58302;51.446;-2.000;2023-04-26T02:56:33;100869.22;;;4.00;100.00
55301;BME280;58302;51.446;-2.000;2023-04-26T02:58:59;100877.91;;;3.95;100.00
55301;BME280;58302;51.446;-2.000;2023-04-26T03:01:26;100877.72;;;3.90;100.00
55301;BME280;58302;51.446;-2.000;2023-04-26T03:03:53;100870.69;;;3.89;100.00
55301;BME280;58302;51.446;-2.000;2023-04-26T03:06:19;100870.50;;;3.90;100.00
55301;BME280;58302;51.446;-2.000;2023-04-26T03:08:45;100858.47;;;3.93;100.00
55301;BME280;58302;51.446;-2.000;2023-04-26T03:11:11;100854.34;;;3.97;100.00
55301;BME280;58302;51.446;-2.000;2023-04-26T03:13:37;100859.88;;;4.09;100.00
55301;BME280;58302;51.446;-2.000;2023-04-26T03:16:02;100854.69;;;4.14;100.00
55301;BME280;58302;51.446;-2.000;2023-04-26T03:18:29;100852.22;;;4.12;100.00
55301;BME280;58302;51.446;-2.000;2023-04-26T03:20:55;100852.81;;;4.14;100.00
55301;BME280;58302;51.446;-2.000;2023-04-26T03:23:21;100849.31;;;4.14;100.00
55301;BME280;58302;51.446;-2.000;2023-04-26T03:25:50;100852.00;;;4.14;100.00
55301;BME280;58302;51.446;-2.000;2023-04-26T03:28:16;100852.22;;;4.12;100.00
55301;BME280;58302;51.446;-2.000;2023-04-26T03:30:42;100843.75;;;4.09;100.00
55301;BME280;58302;51.446;-2.000;2023-04-26T03:33:08;100848.94;;;4.04;100.00
55301;BME280;58302;51.446;-2.000;2023-04-26T03:35:34;100847.91;;;3.98;100.00
55301;BME280;58302;51.446;-2.000;2023-04-26T03:38:00;100840.47;;;3.93;100.00
55301;BME280;58302;51.446;-2.000;2023-04-26T03:40:26;100834.69;;;3.90;100.00
55301;BME280;58302;51.446;-2.000;2023-04-26T03:42:52;100842.59;;;3.85;100.00
55301;BME280;58302;51.446;-2.000;2023-04-26T03:45:17;100836.81;;;3.81;100.00
55301;BME280;58302;51.446;-2.000;2023-04-26T03:47:43;100834.97;;;3.75;100.00
55301;BME280;58302;51.446;-2.000;2023-04-26T03:50:09;100840.34;;;3.75;100.00
55301;BME280;58302;51.446;-2.000;2023-04-26T03:52:35;100836.38;;;3.78;100.00
55301;BME280;58302;51.446;-2.000;2023-04-26T03:55:01;100832.28;;;3.75;100.00
55301;BME280;58302;51.446;-2.000;2023-04-26T03:57:28;100833.09;;;3.76;100.00
55301;BME280;58302;51.446;-2.000;2023-04-26T03:59:54;100821.13;;;3.65;100.00
55301;BME280;58302;51.446;-2.000;2023-04-26T04:02:20;100823.63;;;3.60;100.00
55301;BME280;58302;51.446;-2.000;2023-04-26T04:04:46;100824.25;;;3.55;100.00
55301;BME280;58302;51.446;-2.000;2023-04-26T04:07:12;100815.56;;;3.53;100.00
55301;BME280;58302;51.446;-2.000;2023-04-26T04:09:38;100806.69;;;3.53;100.00
55301;BME280;58302;51.446;-2.000;2023-04-26T04:12:04;100813.09;;;3.52;100.00
55301;BME280;58302;51.446;-2.000;2023-04-26T04:14:30;100804.41;;;3.50;100.00
55301;BME280;58302;51.446;-2.000;2023-04-26T04:16:56;100805.44;;;3.49;100.00
55301;BME280;58302;51.446;-2.000;2023-04-26T04:19:24;100802.56;;;3.50;100.00
55301;BME280;58302;51.446;-2.000;2023-04-26T04:21:49;100804.84;;;3.47;100.00
55301;BME280;58302;51.446;-2.000;2023-04-26T04:24:16;100798.03;;;3.44;100.00
55301;BME280;58302;51.446;-2.000;2023-04-26T04:26:42;100804.00;;;3.46;100.00
55301;BME280;58302;51.446;-2.000;2023-04-26T04:29:08;100807.72;;;3.45;100.00
55301;BME280;58302;51.446;-2.000;2023-04-26T04:31:35;100799.28;;;3.41;100.00
55301;BME280;58302;51.446;-2.000;2023-04-26T04:34:01;100811.47;;;3.37;100.00
55301;BME280;58302;51.446;-2.000;2023-04-26T04:36:27;100811.47;;;3.37;100.00
55301;BME280;58302;51.446;-2.000;2023-04-26T04:38:53;100805.50;;;3.35;100.00
55301;BME280;58302;51.446;-2.000;2023-04-26T04:41:19;100807.31;;;3.35;100.00
55301;BME280;58302;51.446;-2.000;2023-04-26T04:43:47;100806.50;;;3.34;100.00
55301;BME280;58302;51.446;-2.000;2023-04-26T04:46:12;100802.81;;;3.35;100.00
55301;BME280;58302;51.446;-2.000;2023-04-26T04:48:39;100806.69;;;3.39;100.00
55301;BME280;58302;51.446;-2.000;2023-04-26T04:51:06;100809.59;;;3.44;100.00
55301;BME280;58302;51.446;-2.000;2023-04-26T04:53:33;100810.41;;;3.58;100.00
55301;BME280;58302;51.446;-2.000;2023-04-26T04:55:59;100807.91;;;3.63;100.00
55301;BME280;58302;51.446;-2.000;2023-04-26T04:58:25;100808.72;;;3.70;100.00
55301;BME280;58302;51.446;-2.000;2023-04-26T05:00:51;100806.63;;;3.73;100.00
55301;BME280;58302;51.446;-2.000;2023-04-26T05:03:19;100804.75;;;3.73;100.00
55301;BME280;58302;51.446;-2.000;2023-04-26T05:05:45;100803.31;;;3.77;100.00
55301;BME280;58302;51.446;-2.000;2023-04-26T05:08:10;100808.28;;;3.80;100.00
55301;BME280;58302;51.446;-2.000;2023-04-26T05:10:37;100813.44;;;3.82;100.00
55301;BME280;58302;51.446;-2.000;2023-04-26T05:13:03;100815.91;;;3.83;100.00
55301;BME280;58302;51.446;-2.000;2023-04-26T05:15:30;100809.06;;;3.87;100.00
55301;BME280;58302;51.446;-2.000;2023-04-26T05:17:56;100816.50;;;3.92;100.00
55301;BME280;58302;51.446;-2.000;2023-04-26T05:20:24;100809.03;;;3.94;100.00
55301;BME280;58302;51.446;-2.000;2023-04-26T05:22:50;100809.84;;;3.94;100.00
55301;BME280;58302;51.446;-2.000;2023-04-26T05:25:16;100816.66;;;4.04;100.00
55301;BME280;58302;51.446;-2.000;2023-04-26T05:27:42;100812.31;;;4.03;100.00
55301;BME280;58302;51.446;-2.000;2023-04-26T05:30:10;100812.06;;;4.11;100.00
55301;BME280;58302;51.446;-2.000;2023-04-26T05:32:37;100822.41;;;4.14;100.00
55301;BME280;58302;51.446;-2.000;2023-04-26T05:35:03;100824.66;;;4.17;100.00
55301;BME280;58302;51.446;-2.000;2023-04-26T05:37:29;100820.28;;;4.22;100.00
55301;BME280;58302;51.446;-2.000;2023-04-26T05:39:56;100822.16;;;4.29;100.00
55301;BME280;58302;51.446;-2.000;2023-04-26T05:42:22;100820.47;;;4.34;100.00
55301;BME280;58302;51.446;-2.000;2023-04-26T05:44:48;100821.66;;;4.38;100.00
55301;BME280;58302;51.446;-2.000;2023-04-26T05:47:14;100818.56;;;4.41;100.00
55301;BME280;58302;51.446;-2.000;2023-04-26T05:49:40;100812.53;;;4.46;100.00
55301;BME280;58302;51.446;-2.000;2023-04-26T05:52:06;100816.59;;;4.55;100.00
55301;BME280;58302;51.446;-2.000;2023-04-26T05:54:31;100804.94;;;4.61;100.00
55301;BME280;58302;51.446;-2.000;2023-04-26T05:56:57;100799.97;;;4.65;100.00
55301;BME280;58302;51.446;-2.000;2023-04-26T05:59:23;100807.81;;;4.73;100.00
55301;BME280;58302;51.446;-2.000;2023-04-26T06:01:49;100812.13;;;4.74;100.00
55301;BME280;58302;51.446;-2.000;2023-04-26T06:04:15;100813.34;;;4.78;100.00
55301;BME280;58302;51.446;-2.000;2023-04-26T06:06:41;100807.09;;;4.84;100.00
55301;BME280;58302;51.446;-2.000;2023-04-26T06:09:07;100801.00;;;4.95;100.00
55301;BME280;58302;51.446;-2.000;2023-04-26T06:11:37;100789.13;;;5.03;100.00
55301;BME280;58302;51.446;-2.000;2023-04-26T06:14:03;100802.53;;;5.10;100.00
55301;BME280;58302;51.446;-2.000;2023-04-26T06:16:29;100799.56;;;5.18;100.00
55301;BME280;58302;51.446;-2.000;2023-04-26T06:18:55;100795.53;;;5.27;100.00
55301;BME280;58302;51.446;-2.000;2023-04-26T06:21:21;100793.38;;;5.36;100.00
55301;BME280;58302;51.446;-2.000;2023-04-26T06:23:47;100802.59;;;5.46;100.00
55301;BME280;58302;51.446;-2.000;2023-04-26T06:26:13;100791.75;;;5.53;100.00
55301;BME280;58302;51.446;-2.000;2023-04-26T06:28:38;100790.03;;;5.59;100.00
55301;BME280;58302;51.446;-2.000;2023-04-26T06:31:04;100795.06;;;5.73;100.00
55301;BME280;58302;51.446;-2.000;2023-04-26T06:33:31;100781.09;;;5.76;100.00
55301;BME280;58302;51.446;-2.000;2023-04-26T06:35:56;100776.25;;;5.85;100.00
55301;BME280;58302;51.446;-2.000;2023-04-26T06:38:22;100780.91;;;5.96;100.00
55301;BME280;58302;51.446;-2.000;2023-04-26T06:40:48;100780.53;;;6.11;100.00
55301;BME280;58302;51.446;-2.000;2023-04-26T06:43:14;100783.03;;;6.24;100.00
55301;BME280;58302;51.446;-2.000;2023-04-26T06:45:40;100778.09;;;6.21;100.00
55301;BME280;58302;51.446;-2.000;2023-04-26T06:48:06;100779.50;;;6.24;100.00
55301;BME280;58302;51.446;-2.000;2023-04-26T06:50:36;100787.38;;;6.25;100.00
55301;BME280;58302;51.446;-2.000;2023-04-26T06:53:03;100786.34;;;6.26;100.00
55301;BME280;58302;51.446;-2.000;2023-04-26T06:55:29;100791.28;;;6.29;100.00
55301;BME280;58302;51.446;-2.000;2023-04-26T06:57:55;100791.53;;;6.40;100.00
55301;BME280;58302;51.446;-2.000;2023-04-26T07:00:21;100780.56;;;6.65;100.00
55301;BME280;58302;51.446;-2.000;2023-04-26T07:02:47;100773.94;;;6.91;100.00
55301;BME280;58302;51.446;-2.000;2023-04-26T07:05:13;100774.19;;;7.24;100.00
55301;BME280;58302;51.446;-2.000;2023-04-26T07:07:40;100772.75;;;7.69;100.00
55301;BME280;58302;51.446;-2.000;2023-04-26T07:10:06;100768.78;;;8.00;100.00
55301;BME280;58302;51.446;-2.000;2023-04-26T07:12:32;100773.72;;;8.03;100.00
55301;BME280;58302;51.446;-2.000;2023-04-26T07:14:59;100774.56;;;8.03;100.00
55301;BME280;58302;51.446;-2.000;2023-04-26T07:17:26;100778.38;;;8.19;100.00
55301;BME280;58302;51.446;-2.000;2023-04-26T07:19:52;100775.75;;;8.36;100.00
55301;BME280;58302;51.446;-2.000;2023-04-26T07:22:18;100774.38;;;8.50;100.00
55301;BME280;58302;51.446;-2.000;2023-04-26T07:24:44;100768.66;;;8.63;100.00
55301;BME280;58302;51.446;-2.000;2023-04-26T07:27:10;100768.16;;;8.66;100.00
55301;BME280;58302;51.446;-2.000;2023-04-26T07:29:37;100775.91;;;8.91;100.00
55301;BME280;58302;51.446;-2.000;2023-04-26T07:32:03;100764.53;;;9.11;100.00
55301;BME280;58302;51.446;-2.000;2023-04-26T07:34:29;100765.47;;;9.56;100.00
55301;BME280;58302;51.446;-2.000;2023-04-26T07:36:55;100766.63;;;9.82;100.00
55301;BME280;58302;51.446;-2.000;2023-04-26T07:39:22;100758.66;;;9.97;100.00
55301;BME280;58302;51.446;-2.000;2023-04-26T07:41:48;100765.84;;;10.08;100.00
55301;BME280;58302;51.446;-2.000;2023-04-26T07:44:14;100762.38;;;10.13;100.00
55301;BME280;58302;51.446;-2.000;2023-04-26T07:46:40;100758.03;;;10.12;100.00
55301;BME280;58302;51.446;-2.000;2023-04-26T07:49:06;100757.16;;;10.06;100.00
55301;BME280;58302;51.446;-2.000;2023-04-26T07:51:34;100760.38;;;10.03;100.00
55301;BME280;58302;51.446;-2.000;2023-04-26T07:54:00;100756.56;;;9.82;100.00
55301;BME280;58302;51.446;-2.000;2023-04-26T07:56:26;100756.38;;;9.45;100.00
55301;BME280;58302;51.446;-2.000;2023-04-26T07:58:52;100760.00;;;9.34;100.00
55301;BME280;58302;51.446;-2.000;2023-04-26T08:01:18;100759.22;;;9.55;100.00
55301;BME280;58302;51.446;-2.000;2023-04-26T08:03:44;100760.75;;;10.12;100.00
55301;BME280;58302;51.446;-2.000;2023-04-26T08:06:10;100754.22;;;10.94;100.00
55301;BME280;58302;51.446;-2.000;2023-04-26T08:08:36;100745.06;;;11.05;100.00
55301;BME280;58302;51.446;-2.000;2023-04-26T08:11:09;100746.38;;;11.02;100.00
55301;BME280;58302;51.446;-2.000;2023-04-26T08:13:36;100738.34;;;11.65;100.00
55301;BME280;58302;51.446;-2.000;2023-04-26T08:16:02;100740.66;;;11.94;100.00
55301;BME280;58302;51.446;-2.000;2023-04-26T08:18:27;100742.66;;;11.61;100.00
55301;BME280;58302;51.446;-2.000;2023-04-26T08:20:53;100741.25;;;11.06;100.00
55301;BME280;58302;51.446;-2.000;2023-04-26T08:23:20;100747.78;;;10.73;100.00
55301;BME280;58302;51.446;-2.000;2023-04-26T08:25:47;100746.56;;;10.91;100.00
55301;BME280;58302;51.446;-2.000;2023-04-26T08:28:14;100743.41;;;11.04;100.00
55301;BME280;58302;51.446;-2.000;2023-04-26T08:30:41;100747.53;;;11.59;100.00
55301;BME280;58302;51.446;-2.000;2023-04-26T08:33:11;100740.22;;;12.27;100.00
55301;BME280;58302;51.446;-2.000;2023-04-26T08:35:42;100752.72;;;12.23;100.00
55301;BME280;58302;51.446;-2.000;2023-04-26T08:38:28;100740.63;;;11.83;100.00
55301;BME280;58302;51.446;-2.000;2023-04-26T08:41:15;100742.38;;;11.57;100.00
55301;BME280;58302;51.446;-2.000;2023-04-26T08:44:08;100747.13;;;11.30;100.00
55301;BME280;58302;51.446;-2.000;2023-04-26T08:49:40;100750.81;;;11.56;100.00
55301;BME280;58302;51.446;-2.000;2023-04-26T08:52:11;100754.31;;;11.09;100.00
55301;BME280;58302;51.446;-2.000;2023-04-26T08:54:39;100751.59;;;11.09;100.00
55301;BME280;58302;51.446;-2.000;2023-04-26T08:57:06;100748.59;;;11.05;100.00
55301;BME280;58302;51.446;-2.000;2023-04-26T08:59:35;100747.03;;;11.20;100.00
55301;BME280;58302;51.446;-2.000;2023-04-26T09:02:02;100746.22;;;11.19;100.00
55301;BME280;58302;51.446;-2.000;2023-04-26T09:04:29;100753.06;;;10.85;100.00
55301;BME280;58302;51.446;-2.000;2023-04-26T09:07:00;100759.72;;;10.40;100.00
55301;BME280;58302;51.446;-2.000;2023-04-26T09:09:27;100767.88;;;10.18;100.00
55301;BME280;58302;51.446;-2.000;2023-04-26T09:11:55;100766.06;;;10.23;100.00
55301;BME280;58302;51.446;-2.000;2023-04-26T09:14:21;100763.34;;;10.23;100.00
55301;BME280;58302;51.446;-2.000;2023-04-26T09:16:47;100770.47;;;9.86;100.00
55301;BME280;58302;51.446;-2.000;2023-04-26T09:19:13;100771.63;;;9.68;100.00
55301;BME280;58302;51.446;-2.000;2023-04-26T09:21:42;100773.72;;;9.44;100.00
55301;BME280;58302;51.446;-2.000;2023-04-26T09:24:12;100777.00;;;9.46;100.00
55301;BME280;58302;51.446;-2.000;2023-04-26T09:26:38;100774.03;;;9.47;100.00
55301;BME280;58302;51.446;-2.000;2023-04-26T09:29:16;100773.78;;;9.49;100.00
55301;BME280;58302;51.446;-2.000;2023-04-26T09:31:45;100776.50;;;9.49;100.00
55301;BME280;58302;51.446;-2.000;2023-04-26T09:34:12;100783.97;;;9.59;100.00
55301;BME280;58302;51.446;-2.000;2023-04-26T09:37:04;100778.97;;;9.50;100.00
55301;BME280;58302;51.446;-2.000;2023-04-26T09:39:38;100777.09;;;9.73;100.00
55301;BME280;58302;51.446;-2.000;2023-04-26T09:42:08;100776.34;;;9.99;100.00
55301;BME280;58302;51.446;-2.000;2023-04-26T09:44:36;100775.34;;;10.27;100.00
55301;BME280;58302;51.446;-2.000;2023-04-26T09:47:08;100762.47;;;10.45;100.00
55301;BME280;58302;51.446;-2.000;2023-04-26T09:49:48;100770.56;;;10.67;100.00
55301;BME280;58302;51.446;-2.000;2023-04-26T09:52:17;100773.63;;;11.07;100.00
55301;BME280;58302;51.446;-2.000;2023-04-26T09:57:14;100770.66;;;11.51;100.00
55301;BME280;58302;51.446;-2.000;2023-04-26T09:59:46;100762.69;;;11.40;100.00
55301;BME280;58302;51.446;-2.000;2023-04-26T10:02:19;100765.44;;;11.45;100.00
55301;BME280;58302;51.446;-2.000;2023-04-26T10:04:47;100764.06;;;11.42;100.00
55301;BME280;58302;51.446;-2.000;2023-04-26T10:07:16;100761.28;;;11.32;100.00
55301;BME280;58302;51.446;-2.000;2023-04-26T10:09:42;100757.28;;;11.45;100.00
55301;BME280;58302;51.446;-2.000;2023-04-26T10:12:10;100761.69;;;11.56;100.00
55301;BME280;58302;51.446;-2.000;2023-04-26T10:14:36;100754.88;;;11.48;100.00
55301;BME280;58302;51.446;-2.000;2023-04-26T10:17:03;100757.72;;;11.31;100.00
55301;BME280;58302;51.446;-2.000;2023-04-26T10:19:31;100757.88;;;11.57;100.00
55301;BME280;58302;51.446;-2.000;2023-04-26T10:22:00;100761.47;;;11.68;100.00
55301;BME280;58302;51.446;-2.000;2023-04-26T10:24:28;100753.34;;;11.73;100.00
55301;BME280;58302;51.446;-2.000;2023-04-26T10:26:54;100757.66;;;11.64;100.00
55301;BME280;58302;51.446;-2.000;2023-04-26T10:29:25;100762.81;;;11.60;100.00
55301;BME280;58302;51.446;-2.000;2023-04-26T10:34:29;100757.53;;;11.38;100.00
55301;BME280;58302;51.446;-2.000;2023-04-26T10:37:16;100755.28;;;11.30;100.00
55301;BME280;58302;51.446;-2.000;2023-04-26T10:39:44;100748.31;;;11.44;100.00
55301;BME280;58302;51.446;-2.000;2023-04-26T10:42:27;100754.50;;;11.34;100.00
55301;BME280;58302;51.446;-2.000;2023-04-26T10:44:55;100755.63;;;11.39;100.00
55301;BME280;58302;51.446;-2.000;2023-04-26T10:49:51;100753.22;;;12.00;100.00
55301;BME280;58302;51.446;-2.000;2023-04-26T10:52:18;100743.44;;;12.09;100.00
55301;BME280;58302;51.446;-2.000;2023-04-26T10:54:52;100750.81;;;12.24;100.00
55301;BME280;58302;51.446;-2.000;2023-04-26T10:57:19;100745.66;;;12.27;100.00
55301;BME280;58302;51.446;-2.000;2023-04-26T11:05:51;100723.34;;;13.22;100.00
55301;BME280;58302;51.446;-2.000;2023-04-26T11:08:27;100732.03;;;13.39;100.00
55301;BME280;58302;51.446;-2.000;2023-04-26T11:13:31;100727.72;;;13.08;100.00
55301;BME280;58302;51.446;-2.000;2023-04-26T11:16:02;100729.88;;;13.06;100.00
55301;BME280;58302;51.446;-2.000;2023-04-26T11:18:29;100734.22;;;13.02;100.00
55301;BME280;58302;51.446;-2.000;2023-04-26T11:20:56;100736.72;;;13.03;100.00
55301;BME280;58302;51.446;-2.000;2023-04-26T11:23:23;100735.31;;;13.11;100.00
55301;BME280;58302;51.446;-2.000;2023-04-26T11:25:49;100740.53;;;12.72;100.00
55301;BME280;58302;51.446;-2.000;2023-04-26T11:28:17;100741.06;;;12.48;100.00
55301;BME280;58302;51.446;-2.000;2023-04-26T11:30:43;100749.25;;;12.53;100.00
55301;BME280;58302;51.446;-2.000;2023-04-26T11:33:20;100741.31;;;12.52;100.00
55301;BME280;58302;51.446;-2.000;2023-04-26T11:35:53;100745.94;;;12.31;100.00
55301;BME280;58302;51.446;-2.000;2023-04-26T11:38:27;100744.53;;;12.18;100.00
55301;BME280;58302;51.446;-2.000;2023-04-26T11:41:03;100735.47;;;11.92;100.00
55301;BME280;58302;51.446;-2.000;2023-04-26T11:43:36;100730.03;;;11.97;100.00
55301;BME280;58302;51.446;-2.000;2023-04-26T11:46:03;100727.34;;;12.12;100.00
55301;BME280;58302;51.446;-2.000;2023-04-26T11:48:30;100731.50;;;12.35;100.00
55301;BME280;58302;51.446;-2.000;2023-04-26T11:50:57;100729.63;;;12.66;100.00
55301;BME280;58302;51.446;-2.000;2023-04-26T11:53:24;100728.25;;;12.84;100.00
55301;BME280;58302;51.446;-2.000;2023-04-26T11:55:50;100726.63;;;12.88;100.00
55301;BME280;58302;51.446;-2.000;2023-04-26T11:58:19;100725.00;;;12.87;100.00
55301;BME280;58302;51.446;-2.000;2023-04-26T12:00:59;100720.34;;;12.62;100.00
55301;BME280;58302;51.446;-2.000;2023-04-26T12:03:30;100719.81;;;12.60;100.00
55301;BME280;58302;51.446;-2.000;2023-04-26T12:05:57;100720.88;;;12.39;100.00
55301;BME280;58302;51.446;-2.000;2023-04-26T12:08:25;100723.84;;;12.27;100.00
55301;BME280;58302;51.446;-2.000;2023-04-26T12:10:52;100716.25;;;12.55;100.00
55301;BME280;58302;51.446;-2.000;2023-04-26T12:13:18;100710.78;;;12.96;100.00
55301;BME280;58302;51.446;-2.000;2023-04-26T12:15:45;100713.78;;;13.14;100.00
55301;BME280;58302;51.446;-2.000;2023-04-26T12:18:11;100716.75;;;13.28;100.00
55301;BME280;58302;51.446;-2.000;2023-04-26T12:20:39;100714.88;;;13.13;100.00
55301;BME280;58302;51.446;-2.000;2023-04-26T12:23:12;100713.22;;;13.12;100.00
55301;BME280;58302;51.446;-2.000;2023-04-26T12:25:39;100709.13;;;13.15;100.00
55301;BME280;58302;51.446;-2.000;2023-04-26T12:28:08;100712.97;;;13.24;100.00
55301;BME280;58302;51.446;-2.000;2023-04-26T12:30:38;100717.31;;;13.35;100.00
55301;BME280;58302;51.446;-2.000;2023-04-26T12:33:04;100710.22;;;13.14;100.00
55301;BME280;58302;51.446;-2.000;2023-04-26T12:35:31;100709.69;;;13.27;100.00
55301;BME280;58302;51.446;-2.000;2023-04-26T12:37:58;100712.38;;;13.42;100.00
55301;BME280;58302;51.446;-2.000;2023-04-26T12:40:27;100719.03;;;13.86;100.00
55301;BME280;58302;51.446;-2.000;2023-04-26T12:42:54;100711.59;;;13.96;100.00
55301;BME280;58302;51.446;-2.000;2023-04-26T12:45:24;100716.47;;;14.05;100.00
55301;BME280;58302;51.446;-2.000;2023-04-26T12:47:52;100720.94;;;13.90;100.00
55301;BME280;58302;51.446;-2.000;2023-04-26T12:50:19;100710.47;;;14.03;100.00
55301;BME280;58302;51.446;-2.000;2023-04-26T12:52:46;100708.63;;;14.37;100.00
55301;BME280;58302;51.446;-2.000;2023-04-26T12:55:14;100701.00;;;14.34;100.00